Time;durP1;ratioP1;P1;durP2;ratioP2;P2;SDS_P1;SDS_P2;PMS_P1;PMS_P2;Temp;Humidity;BMP_temperature;BMP_pressure;BME280_temperature;BME280_humidity;BME280_pressure;Samples;Min_cycle;Max_cycle;Signal;HPM_P1;HPM_P2
2024/02/02 00:01:33;;;;;;;28.47;9.33;;;4.30;1.00;;;;;;4975102;28;20539;-62
2024/02/02 00:04:02;;;;;;;27.57;9.20;;;4.40;1.00;;;;;;4975373;28;20490;-62
2024/02/02 00:06:30;;;;;;;22.37;7.67;;;4.40;99.90;;;;;;4975547;28;20474;-62
2024/02/02 00:08:57;;;;;;;22.93;9.00;;;4.50;99.90;;;;;;4975839;28;20838;-62
2024/02/02 00:11:25;;;;;;;24.73;9.13;;;4.40;99.90;;;;;;4973025;28;20914;-62
2024/02/02 00:13:53;;;;;;;20.20;7.93;;;4.40;83.70;;;;;;4975873;28;20462;-61
2024/02/02 00:16:20;;;;;;;27.27;8.83;;;4.50;29.60;;;;;;4975617;28;20466;-62
2024/02/02 00:18:48;;;;;;;27.27;9.87;;;4.40;1.00;;;;;;4975867;28;20466;-62
2024/02/02 00:21:17;;;;;;;20.70;10.77;;;4.40;1.00;;;;;;4975903;28;20436;-62
2024/02/02 00:23:45;;;;;;;26.10;11.20;;;4.40;1.00;;;;;;4975815;28;20498;-63
2024/02/02 00:26:12;;;;;;;25.60;9.40;;;4.40;1.00;;;;;;4975581;28;20590;-62
2024/02/02 00:28:41;;;;;;;28.87;10.80;;;4.40;1.00;;;;;;4975547;28;20544;-62
2024/02/02 00:31:09;;;;;;;28.83;13.30;;;4.40;1.00;;;;;;4975757;28;20473;-62
2024/02/02 00:33:36;;;;;;;31.17;13.40;;;4.40;1.00;;;;;;4976083;28;20467;-62
2024/02/02 00:36:05;;;;;;;30.87;11.87;;;4.40;1.00;;;;;;4974179;28;20798;-63
2024/02/02 00:38:34;;;;;;;24.60;10.53;;;4.40;1.00;;;;;;4975436;28;20538;-62
2024/02/02 00:41:01;;;;;;;26.20;11.10;;;4.40;1.00;;;;;;4975533;28;20462;-62
2024/02/02 00:43:29;;;;;;;23.73;10.60;;;4.40;1.00;;;;;;4975825;28;20504;-62
2024/02/02 00:45:56;;;;;;;33.10;11.10;;;4.50;1.00;;;;;;4975705;28;20457;-61
2024/02/02 00:48:24;;;;;;;25.53;10.30;;;4.40;1.00;;;;;;4975411;28;20758;-63
2024/02/02 00:50:51;;;;;;;25.07;11.00;;;4.50;1.00;;;;;;4975371;28;20458;-62
2024/02/02 00:53:19;;;;;;;20.70;9.67;;;4.50;1.00;;;;;;4975773;28;20539;-62
2024/02/02 00:55:48;;;;;;;22.23;9.97;;;4.50;1.00;;;;;;4975659;28;20499;-62
2024/02/02 00:58:16;;;;;;;30.83;11.47;;;4.50;1.00;;;;;;4975750;28;20473;-62
2024/02/02 01:00:43;;;;;;;24.53;10.80;;;4.50;1.00;;;;;;4976730;28;20478;-62
2024/02/02 01:03:10;;;;;;;32.90;9.70;;;4.50;1.00;;;;;;4978699;28;20493;-62
2024/02/02 01:05:38;;;;;;;32.87;11.27;;;4.60;1.00;;;;;;4978494;28;20469;-62
2024/02/02 01:08:06;;;;;;;19.57;9.23;;;4.60;1.00;;;;;;4978999;28;20940;-62
2024/02/02 01:10:34;;;;;;;29.13;12.47;;;4.60;99.90;;;;;;4979209;28;20882;-62
2024/02/02 01:13:03;;;;;;;21.43;10.00;;;4.60;99.90;;;;;;4979038;28;20799;-62
2024/02/02 01:15:31;;;;;;;32.10;10.50;;;4.70;99.90;;;;;;4978579;28;20961;-62
2024/02/02 01:17:58;;;;;;;21.73;9.30;;;4.60;99.90;;;;;;4978496;28;20461;-62
2024/02/02 01:20:26;;;;;;;29.23;9.80;;;4.60;99.90;;;;;;4978835;28;20565;-62
2024/02/02 01:22:53;;;;;;;20.70;9.67;;;4.70;99.90;;;;;;4978698;28;20790;-62
2024/02/02 01:25:20;;;;;;;21.60;8.80;;;4.70;99.90;;;;;;4978371;28;20462;-62
2024/02/02 01:27:48;;;;;;;22.70;9.23;;;4.80;37.10;;;;;;4978287;28;20465;-62
2024/02/02 01:30:17;;;;;;;21.63;8.27;;;4.80;13.80;;;;;;4978396;28;20490;-62
2024/02/02 01:32:44;;;;;;;28.23;10.20;;;4.70;1.00;;;;;;4978800;28;20470;-62
2024/02/02 01:35:12;;;;;;;33.10;10.63;;;4.70;1.00;;;;;;4977939;28;20466;-62
2024/02/02 01:37:39;;;;;;;28.33;9.43;;;4.70;1.00;;;;;;4978521;28;20488;-62
2024/02/02 01:40:08;;;;;;;31.80;9.83;;;4.70;1.00;;;;;;4978448;28;20466;-62
2024/02/02 01:42:35;;;;;;;26.73;12.00;;;4.60;99.90;;;;;;4978679;28;20462;-61
2024/02/02 01:45:03;;;;;;;24.97;10.40;;;4.60;99.90;;;;;;4978394;28;20469;-62
2024/02/02 01:47:32;;;;;;;23.77;11.33;;;4.60;99.90;;;;;;4978160;28;20462;-62
2024/02/02 01:49:59;;;;;;;23.13;11.40;;;4.60;1.00;;;;;;4978252;28;20469;-61
2024/02/02 01:52:27;;;;;;;25.93;10.57;;;4.60;2.80;;;;;;4978209;28;20432;-62
2024/02/02 01:54:54;;;;;;;31.50;11.40;;;4.60;99.90;;;;;;4978223;28;20457;-61
2024/02/02 01:57:22;;;;;;;19.70;10.10;;;4.60;99.90;;;;;;4977881;28;20461;-62
2024/02/02 01:59:50;;;;;;;24.87;11.93;;;4.60;99.90;;;;;;4977785;28;20461;-62
2024/02/02 02:02:17;;;;;;;28.20;11.97;;;4.60;1.00;;;;;;4977771;28;20462;-61
2024/02/02 02:04:46;;;;;;;23.67;11.30;;;4.70;1.00;;;;;;4978029;28;20494;-62
2024/02/02 02:07:13;;;;;;;20.70;10.40;;;4.60;99.90;;;;;;4977397;28;20486;-62
2024/02/02 02:09:43;;;;;;;23.93;12.40;;;4.70;99.90;;;;;;4978077;28;20747;-62
2024/02/02 02:12:10;;;;;;;27.10;11.43;;;4.70;1.00;;;;;;4977861;28;20948;-62
2024/02/02 02:14:38;;;;;;;20.00;10.60;;;4.70;99.90;;;;;;4978077;28;20439;-62
2024/02/02 02:17:05;;;;;;;22.17;10.40;;;4.70;99.90;;;;;;4978272;28;20718;-62
2024/02/02 02:19:34;;;;;;;22.70;10.87;;;4.70;99.90;;;;;;4977867;28;20879;-62
2024/02/02 02:22:03;;;;;;;27.17;9.33;;;4.70;99.90;;;;;;4977826;28;20473;-62
2024/02/02 02:24:31;;;;;;;23.43;9.97;;;4.70;69.10;;;;;;4977204;28;20551;-62
2024/02/02 02:26:59;;;;;;;21.00;9.43;;;4.70;1.00;;;;;;4978093;28;20473;-62
2024/02/02 02:29:26;;;;;;;23.13;8.67;;;4.70;99.90;;;;;;4977498;28;20465;-62
2024/02/02 02:31:54;;;;;;;21.80;9.30;;;4.80;99.90;;;;;;4977318;28;20462;-62
2024/02/02 02:34:23;;;;;;;21.67;9.07;;;4.80;1.00;;;;;;4977448;28;20466;-61
2024/02/02 02:36:50;;;;;;;20.07;8.57;;;4.80;1.00;;;;;;4977849;28;20850;-62
2024/02/02 02:39:19;;;;;;;21.40;8.50;;;4.80;1.00;;;;;;4977459;28;20465;-62
2024/02/02 02:41:47;;;;;;;24.90;9.33;;;4.80;1.00;;;;;;4977178;28;20466;-62
2024/02/02 02:44:14;;;;;;;26.97;10.27;;;4.80;99.90;;;;;;4977277;28;20934;-62
2024/02/02 02:46:42;;;;;;;25.13;9.30;;;4.80;99.90;;;;;;4977244;28;20469;-61
2024/02/02 02:49:10;;;;;;;17.13;8.27;;;4.80;99.90;;;;;;4976873;28;20466;-62
2024/02/02 02:51:37;;;;;;;23.20;8.97;;;4.90;99.90;;;;;;4976979;28;20462;-62
2024/02/02 02:54:04;;;;;;;22.97;8.30;;;4.90;99.90;;;;;;4977016;28;20440;-62
2024/02/02 02:56:33;;;;;;;14.20;7.43;;;4.90;99.90;;;;;;4977252;28;20490;-62
2024/02/02 02:59:01;;;;;;;14.10;8.00;;;4.90;99.90;;;;;;4977497;28;20466;-63
2024/02/02 03:01:28;;;;;;;32.87;10.60;;;4.90;99.90;;;;;;4977248;28;20474;-62
2024/02/02 03:03:55;;;;;;;18.60;8.30;;;4.80;99.90;;;;;;4976936;28;20493;-62
2024/02/02 03:06:23;;;;;;;19.17;9.00;;;4.80;99.90;;;;;;4977126;28;20469;-63
2024/02/02 03:08:50;;;;;;;24.93;9.27;;;4.90;99.90;;;;;;4976913;28;20848;-62
2024/02/02 03:11:17;;;;;;;20.57;8.07;;;4.80;99.90;;;;;;4976830;28;20466;-62
2024/02/02 03:13:46;;;;;;;20.63;9.70;;;4.80;99.90;;;;;;4976951;28;20455;-62
2024/02/02 03:16:14;;;;;;;20.67;8.43;;;4.80;99.90;;;;;;4976485;28;20458;-62
2024/02/02 03:18:41;;;;;;;23.63;9.57;;;4.80;99.90;;;;;;4977311;28;20857;-61
2024/02/02 03:21:09;;;;;;;27.37;10.87;;;4.80;99.90;;;;;;4976422;28;20466;-62
2024/02/02 03:23:36;;;;;;;29.60;10.33;;;4.80;1.00;;;;;;4975980;28;20540;-62
2024/02/02 03:26:03;;;;;;;22.17;9.20;;;4.80;1.00;;;;;;4976782;28;20899;-62
2024/02/02 03:28:31;;;;;;;20.43;9.80;;;4.80;1.00;;;;;;4976790;28;20462;-62
2024/02/02 03:31:00;;;;;;;19.93;8.77;;;4.80;1.00;;;;;;4977026;28;20762;-62
2024/02/02 03:33:27;;;;;;;25.30;9.30;;;4.80;1.00;;;;;;4976329;28;20462;-64
2024/02/02 03:35:54;;;;;;;25.87;9.50;;;4.80;1.00;;;;;;4976369;28;20492;-62
2024/02/02 03:38:22;;;;;;;23.40;8.47;;;4.80;99.90;;;;;;4976858;28;20776;-62
2024/02/02 03:40:49;;;;;;;17.43;8.93;;;4.80;52.90;;;;;;4976534;28;20572;-62
2024/02/02 03:43:17;;;;;;;24.07;8.77;;;4.80;99.90;;;;;;4975726;28;20462;-62
2024/02/02 03:45:44;;;;;;;21.50;8.37;;;4.80;99.90;;;;;;4976453;28;20491;-62
2024/02/02 03:48:13;;;;;;;25.73;8.60;;;4.90;99.90;;;;;;4976223;28;20519;-62
2024/02/02 03:50:40;;;;;;;23.33;8.47;;;4.80;99.90;;;;;;4976497;28;20462;-62
2024/02/02 03:53:07;;;;;;;20.03;8.33;;;4.80;99.90;;;;;;4975889;28;20458;-63
2024/02/02 03:55:35;;;;;;;28.27;8.37;;;4.80;99.90;;;;;;4976291;28;20890;-62
2024/02/02 03:58:02;;;;;;;22.40;8.83;;;4.80;99.90;;;;;;4976245;28;20778;-62
2024/02/02 04:00:29;;;;;;;20.10;9.10;;;4.90;99.90;;;;;;4976224;28;20462;-62
2024/02/02 04:02:57;;;;;;;31.50;10.47;;;4.80;99.90;;;;;;4976625;28;20816;-62
2024/02/02 04:05:25;;;;;;;24.43;9.17;;;4.80;99.90;;;;;;4975777;28;20490;-62
2024/02/02 04:07:53;;;;;;;22.63;8.50;;;4.80;99.90;;;;;;4976030;28;20493;-62
2024/02/02 04:10:20;;;;;;;17.43;8.67;;;4.90;99.90;;;;;;4976099;28;20470;-62
2024/02/02 04:12:47;;;;;;;19.00;7.80;;;4.90;99.90;;;;;;4976333;28;20755;-62
2024/02/02 04:15:15;;;;;;;18.63;7.90;;;4.90;99.90;;;;;;4975851;28;20462;-62
2024/02/02 04:17:42;;;;;;;22.67;8.30;;;4.90;99.90;;;;;;4976227;28;20852;-62
2024/02/02 04:20:11;;;;;;;22.17;7.90;;;4.90;99.90;;;;;;4975793;28;20469;-62
2024/02/02 04:22:39;;;;;;;22.67;8.23;;;4.90;99.90;;;;;;4976063;28;20883;-63
2024/02/02 04:25:07;;;;;;;29.43;7.67;;;4.90;99.90;;;;;;4976028;28;20493;-63
2024/02/02 04:27:35;;;;;;;16.57;8.30;;;4.80;99.90;;;;;;4975527;28;20520;-62
2024/02/02 04:30:03;;;;;;;17.97;8.93;;;4.90;1.00;;;;;;4976163;28;20553;-62
2024/02/02 04:32:32;;;;;;;22.53;8.67;;;4.90;1.00;;;;;;4975425;28;20465;-62
2024/02/02 04:34:59;;;;;;;18.30;8.20;;;4.90;1.00;;;;;;4975763;28;20461;-62
2024/02/02 04:37:26;;;;;;;19.50;9.17;;;4.90;1.00;;;;;;4975588;28;20728;-62
2024/02/02 04:39:55;;;;;;;25.47;9.67;;;4.90;1.00;;;;;;4975539;28;20531;-62
2024/02/02 04:42:22;;;;;;;19.13;8.30;;;4.80;1.00;;;;;;4975205;28;20519;-62
2024/02/02 04:44:50;;;;;;;20.67;9.50;;;4.80;1.00;;;;;;4975612;28;20551;-63
2024/02/02 04:47:17;;;;;;;27.47;10.53;;;4.80;1.00;;;;;;4975389;28;20905;-62
2024/02/02 04:49:45;;;;;;;18.53;8.40;;;4.90;1.00;;;;;;4975072;28;20926;-63
2024/02/02 04:52:12;;;;;;;28.13;9.10;;;4.80;37.50;;;;;;4975658;28;20461;-62
2024/02/02 04:54:39;;;;;;;21.70;8.23;;;4.80;60.70;;;;;;4975320;28;20515;-62
2024/02/02 04:57:08;;;;;;;20.90;8.50;;;4.80;99.90;;;;;;4974376;28;20437;-62
2024/02/02 04:59:35;;;;;;;24.07;9.83;;;4.80;99.90;;;;;;4975253;28;20481;-62
2024/02/02 05:02:03;;;;;;;18.97;9.07;;;4.70;99.90;;;;;;4975266;28;20466;-62
2024/02/02 05:04:30;;;;;;;18.90;9.40;;;4.70;99.90;;;;;;4975342;28;20593;-62
2024/02/02 05:06:57;;;;;;;20.63;8.20;;;4.70;99.90;;;;;;4975302;28;20540;-62
2024/02/02 05:09:25;;;;;;;19.00;10.43;;;4.70;99.90;;;;;;4970735;28;20504;-63
2024/02/02 05:11:52;;;;;;;17.63;9.10;;;4.60;99.90;;;;;;4978043;28;20751;-62
2024/02/02 05:14:21;;;;;;;26.30;9.20;;;4.70;99.90;;;;;;4994460;28;20453;-62
2024/02/02 05:16:48;;;;;;;29.67;9.17;;;4.70;99.90;;;;;;4994146;28;20457;-62
2024/02/02 05:19:16;;;;;;;19.33;8.83;;;4.60;99.90;;;;;;4994043;28;20578;-62
2024/02/02 05:21:43;;;;;;;18.37;8.20;;;4.60;99.90;;;;;;4994305;28;20514;-63
2024/02/02 05:24:11;;;;;;;27.00;9.67;;;4.60;99.90;;;;;;4994214;28;20554;-62
2024/02/02 05:26:38;;;;;;;22.70;8.87;;;4.70;92.70;;;;;;4994438;28;20526;-62
2024/02/02 05:29:05;;;;;;;24.63;9.33;;;4.70;99.90;;;;;;4994649;28;20462;-61
2024/02/02 05:31:34;;;;;;;18.20;8.20;;;4.70;99.90;;;;;;4993924;28;20436;-63
2024/02/02 05:34:01;;;;;;;16.50;9.63;;;4.70;99.90;;;;;;4994619;28;20465;-62
2024/02/02 05:36:29;;;;;;;22.60;8.10;;;4.70;2.30;;;;;;4994323;28;20465;-62
2024/02/02 05:38:56;;;;;;;18.13;7.70;;;4.70;48.80;;;;;;4994507;28;20468;-62
2024/02/02 05:41:23;;;;;;;19.43;8.23;;;4.70;1.00;;;;;;4956833;28;20532;-62
2024/02/02 05:43:51;;;;;;;17.93;8.83;;;4.70;50.50;;;;;;4974034;28;20469;-62
2024/02/02 05:46:18;;;;;;;18.50;7.80;;;4.70;99.90;;;;;;4975514;28;20465;-62
2024/02/02 05:48:47;;;;;;;18.43;8.57;;;4.60;99.90;;;;;;4977582;28;20458;-62
2024/02/02 05:51:14;;;;;;;21.10;8.17;;;4.60;99.90;;;;;;4977528;28;20469;-62
2024/02/02 05:53:42;;;;;;;26.93;9.37;;;4.70;99.90;;;;;;4977719;28;20461;-62
2024/02/02 05:56:09;;;;;;;23.90;9.20;;;4.70;99.90;;;;;;4978343;28;20465;-62
2024/02/02 05:58:36;;;;;;;15.03;7.87;;;4.70;99.90;;;;;;4978108;28;20510;-63
2024/02/02 06:01:04;;;;;;;16.17;7.90;;;4.70;99.90;;;;;;4978123;28;20933;-62
2024/02/02 06:03:31;;;;;;;25.20;10.00;;;4.70;99.90;;;;;;4977935;28;20468;-62
2024/02/02 06:06:00;;;;;;;21.90;8.40;;;4.70;99.90;;;;;;4977469;28;20502;-62
2024/02/02 06:08:27;;;;;;;21.57;10.27;;;4.70;99.90;;;;;;4977568;28;20490;-62
2024/02/02 06:10:55;;;;;;;26.10;9.40;;;4.70;99.90;;;;;;4977808;28;20486;-62
2024/02/02 06:13:22;;;;;;;19.77;9.30;;;4.60;99.90;;;;;;4977117;28;20463;-62
2024/02/02 06:15:49;;;;;;;26.67;10.73;;;4.60;99.90;;;;;;4977665;28;20458;-63
2024/02/02 06:18:19;;;;;;;24.90;10.07;;;4.70;99.90;;;;;;4976367;28;20527;-62
2024/02/02 06:20:47;;;;;;;20.03;8.60;;;4.70;99.90;;;;;;4975526;28;20975;-62
2024/02/02 06:23:16;;;;;;;28.23;9.60;;;4.70;99.90;;;;;;4975221;28;20916;-62
2024/02/02 06:25:43;;;;;;;23.00;8.80;;;4.60;99.90;;;;;;4976787;28;20581;-62
2024/02/02 06:28:13;;;;;;;20.80;9.67;;;4.60;99.90;;;;;;4977670;28;20786;-62
2024/02/02 06:30:41;;;;;;;21.60;9.70;;;4.60;99.90;;;;;;4975592;28;20523;-62
2024/02/02 06:33:11;;;;;;;25.93;10.83;;;4.50;99.90;;;;;;4975749;28;20466;-62
2024/02/02 06:35:38;;;;;;;20.47;8.83;;;4.50;99.90;;;;;;4975832;28;20557;-62
2024/02/02 06:38:05;;;;;;;19.70;8.27;;;4.50;99.90;;;;;;4977639;28;20470;-62
2024/02/02 06:40:34;;;;;;;28.33;9.93;;;4.60;99.90;;;;;;4977775;28;20894;-62
2024/02/02 06:43:04;;;;;;;17.07;8.87;;;4.50;99.90;;;;;;4977165;28;20462;-63
2024/02/02 06:45:31;;;;;;;20.70;8.87;;;4.50;99.90;;;;;;4977265;28;20501;-62
2024/02/02 06:47:59;;;;;;;27.90;8.50;;;4.50;99.90;;;;;;4977240;28;20462;-63
2024/02/02 06:50:26;;;;;;;19.93;8.10;;;4.60;99.90;;;;;;4977320;28;20895;-62
2024/02/02 06:52:54;;;;;;;15.77;7.30;;;4.60;1.00;;;;;;4977689;28;20890;-63
2024/02/02 06:55:21;;;;;;;15.63;7.20;;;4.60;1.00;;;;;;4976837;28;20465;-63
2024/02/02 06:57:51;;;;;;;16.20;7.90;;;4.60;1.00;;;;;;4975962;28;20458;-63
2024/02/02 07:00:19;;;;;;;20.23;7.13;;;4.60;1.00;;;;;;4977404;28;20765;-62
2024/02/02 07:02:47;;;;;;;24.80;7.50;;;4.60;1.00;;;;;;4977091;28;20470;-63
2024/02/02 07:05:15;;;;;;;15.70;7.23;;;4.70;1.00;;;;;;4977038;28;20938;-63
2024/02/02 07:07:42;;;;;;;16.43;6.70;;;4.70;1.00;;;;;;4976746;28;20500;-63
2024/02/02 07:10:15;;;;;;;23.20;7.60;;;4.60;35.30;;;;;;4976563;28;20770;-63
2024/02/02 07:13:02;;;;;;;20.83;7.20;;;4.60;1.00;;;;;;4977236;28;20470;-62
2024/02/02 07:15:34;;;;;;;21.60;7.90;;;4.70;1.00;;;;;;4976972;28;20713;-63
2024/02/02 07:18:03;;;;;;;20.93;7.57;;;4.70;1.00;;;;;;4976653;28;20760;-62
2024/02/02 07:21:04;;;;;;;25.23;8.90;;;4.70;1.00;;;;;;4976215;28;20512;-63
2024/02/02 07:23:36;;;;;;;20.60;7.10;;;4.60;1.00;;;;;;4976663;28;20462;-62
2024/02/02 07:26:13;;;;;;;15.73;7.10;;;4.60;1.00;;;;;;4976813;28;20501;-62
2024/02/02 07:28:42;;;;;;;17.30;5.97;;;4.60;1.00;;;;;;5005352;28;20454;-62
2024/02/02 07:31:12;;;;;;;20.37;6.67;;;4.60;1.00;;;;;;4976386;28;20461;-62
2024/02/02 07:33:41;;;;;;;14.40;6.60;;;4.60;99.90;;;;;;4976493;28;20960;-62
2024/02/02 07:36:13;;;;;;;16.40;6.50;;;4.60;1.00;;;;;;4976949;28;20433;-62
2024/02/02 07:38:44;;;;;;;19.23;5.50;;;4.60;1.00;;;;;;4976834;28;20466;-61
2024/02/02 07:41:16;;;;;;;13.30;6.00;;;4.60;99.90;;;;;;4976456;28;20462;-62
2024/02/02 07:43:47;;;;;;;12.40;5.43;;;4.60;99.90;;;;;;4976605;28;20743;-62
2024/02/02 07:46:14;;;;;;;15.50;6.97;;;4.60;99.90;;;;;;4975406;28;20494;-62
2024/02/02 07:48:42;;;;;;;16.57;5.67;;;4.60;1.00;;;;;;4976046;28;20560;-62
2024/02/02 07:51:11;;;;;;;12.00;5.77;;;4.70;1.00;;;;;;4975983;28;20458;-63
2024/02/02 07:53:39;;;;;;;19.27;6.33;;;4.70;1.00;;;;;;4976271;28;20781;-62
2024/02/02 07:56:08;;;;;;;16.00;5.40;;;4.70;99.90;;;;;;4976029;28;20460;-62
2024/02/02 07:58:35;;;;;;;15.90;5.50;;;4.80;99.90;;;;;;4976118;28;20899;-63
2024/02/02 08:01:04;;;;;;;17.03;5.43;;;4.80;99.90;;;;;;4976462;28;20470;-63
2024/02/02 08:03:32;;;;;;;16.33;5.10;;;4.90;51.00;;;;;;4976498;28;20437;-62
2024/02/02 08:05:59;;;;;;;19.13;5.97;;;5.00;1.00;;;;;;4976100;28;20498;-63
2024/02/02 08:08:27;;;;;;;16.00;6.10;;;5.10;1.00;;;;;;4976416;28;20585;-63
2024/02/02 08:10:54;;;;;;;17.37;6.63;;;5.10;1.00;;;;;;4976117;28;20572;-63
2024/02/02 08:13:23;;;;;;;16.10;5.30;;;5.10;1.00;;;;;;4975286;28;20463;-63
2024/02/02 08:15:50;;;;;;;21.60;6.03;;;5.20;1.00;;;;;;4975179;28;20463;-63
2024/02/02 08:18:19;;;;;;;13.67;5.00;;;5.20;1.00;;;;;;4976506;28;20502;-63
2024/02/02 08:20:47;;;;;;;13.93;5.10;;;5.30;1.00;;;;;;4976788;28;20472;-62
2024/02/02 08:23:15;;;;;;;11.50;4.80;;;5.50;1.00;;;;;;4976401;28;20535;-63
2024/02/02 08:25:42;;;;;;;13.47;4.43;;;5.70;99.90;;;;;;4976344;28;20498;-63
2024/02/02 08:28:10;;;;;;;17.60;5.43;;;5.80;99.90;;;;;;4976697;28;20462;-63
2024/02/02 08:30:38;;;;;;;17.93;5.47;;;5.90;99.90;;;;;;4974379;28;20772;-63
2024/02/02 08:33:05;;;;;;;12.17;4.90;;;6.00;99.90;;;;;;4974468;28;20776;-62
2024/02/02 08:35:35;;;;;;;12.70;5.03;;;6.10;99.90;;;;;;4975174;28;20469;-66
2024/02/02 08:38:05;;;;;;;16.00;5.43;;;6.10;1.00;;;;;;4974325;28;20462;-62
2024/02/02 08:40:39;;;;;;;15.83;5.53;;;6.10;93.40;;;;;;4974931;28;20485;-62
2024/02/02 08:43:10;;;;;;;12.30;5.80;;;6.10;99.90;;;;;;4974640;28;20473;-62
2024/02/02 08:46:09;;;;;;;18.30;5.50;;;6.20;74.20;;;;;;4975939;28;20588;-62
2024/02/02 08:48:40;;;;;;;12.70;4.70;;;6.20;1.00;;;;;;4976129;28;20450;-69
2024/02/02 08:51:37;;;;;;;12.23;5.03;;;6.20;1.00;;;;;;4975839;28;20465;-62
2024/02/02 08:54:42;;;;;;;16.40;4.83;;;6.10;1.00;;;;;;4999547;28;20473;-63
2024/02/02 08:57:36;;;;;;;10.93;5.23;;;6.20;4.40;;;;;;4974446;28;20466;-62
2024/02/02 09:00:24;;;;;;;11.67;5.60;;;6.10;1.00;;;;;;4975230;28;20507;-64
2024/02/02 09:02:55;;;;;;;15.40;5.63;;;6.00;1.00;;;;;;4975543;28;20562;-63
2024/02/02 09:05:24;;;;;;;13.83;5.40;;;6.00;1.00;;;;;;4974849;28;20558;-64
2024/02/02 09:07:53;;;;;;;17.90;6.67;;;6.00;1.00;;;;;;4975278;28;20501;-62
2024/02/02 09:11:15;;;;;;;12.67;4.90;;;6.10;1.00;;;;;;5040089;28;20465;-63
2024/02/02 09:13:44;;;;;;;18.80;5.67;;;6.20;3.40;;;;;;4998704;28;20739;-62
2024/02/02 09:16:14;;;;;;;19.30;5.13;;;6.30;5.50;;;;;;4974750;28;20451;-66
2024/02/02 09:18:44;;;;;;;15.70;4.50;;;6.30;1.00;;;;;;4974896;28;20741;-61
2024/02/02 09:21:18;;;;;;;15.33;5.47;;;6.40;1.00;;;;;;4974313;28;20462;-65
2024/02/02 09:23:52;;;;;;;16.10;4.93;;;6.50;1.00;;;;;;4978357;28;20939;-65
2024/02/02 09:26:33;;;;;;;14.83;4.07;;;6.60;1.00;;;;;;4978639;28;20869;-63
2024/02/02 09:29:02;;;;;;;10.00;4.80;;;6.50;1.00;;;;;;4979466;28;20556;-64
2024/02/02 09:31:36;;;;;;;17.13;4.97;;;6.60;1.00;;;;;;4979151;28;20803;-62
2024/02/02 09:34:08;;;;;;;23.90;5.93;;;6.80;1.00;;;;;;4979616;28;20505;-63
2024/02/02 09:36:37;;;;;;;12.70;4.87;;;6.80;1.00;;;;;;4978822;28;20465;-62
2024/02/02 09:39:09;;;;;;;12.03;4.80;;;7.00;1.00;;;;;;4978859;28;20462;-63
2024/02/02 09:42:11;;;;;;;14.57;4.57;;;6.90;1.00;;;;;;4979064;28;20441;-63
2024/02/02 09:44:48;;;;;;;10.03;4.17;;;7.00;1.00;;;;;;4979491;28;20890;-64
2024/02/02 09:47:42;;;;;;;13.97;5.10;;;7.00;1.00;;;;;;4979053;28;20962;-63
2024/02/02 09:50:25;;;;;;;15.50;5.43;;;6.90;1.00;;;;;;4979371;28;20929;-62
2024/02/02 09:53:11;;;;;;;10.17;4.17;;;6.80;1.00;;;;;;4959182;28;20475;-62
2024/02/02 09:55:50;;;;;;;12.23;4.50;;;6.80;1.00;;;;;;4958621;28;20497;-62
2024/02/02 09:58:26;;;;;;;11.07;4.80;;;6.90;1.00;;;;;;4960087;28;20545;-63
2024/02/02 10:01:01;;;;;;;14.20;5.20;;;6.90;1.00;;;;;;4967214;28;20901;-64
2024/02/02 10:03:37;;;;;;;14.30;5.00;;;6.90;1.00;;;;;;4979217;28;20461;-71
2024/02/02 10:06:24;;;;;;;15.73;5.33;;;7.00;1.00;;;;;;4978718;28;20498;-67
2024/02/02 10:09:09;;;;;;;11.00;5.40;;;7.00;1.00;;;;;;4978110;28;20489;-73
2024/02/02 10:11:57;;;;;;;19.37;6.60;;;7.10;1.00;;;;;;4977904;28;20447;-63
2024/02/02 10:14:46;;;;;;;11.90;4.07;;;7.20;1.00;;;;;;4979537;28;20980;-64
2024/02/02 10:17:23;;;;;;;13.60;5.13;;;7.10;1.00;;;;;;4977734;28;20952;-71
2024/02/02 10:20:16;;;;;;;16.87;5.37;;;7.00;1.00;;;;;;4978232;28;20942;-63
2024/02/02 10:23:06;;;;;;;15.30;5.00;;;7.10;1.00;;;;;;4978787;28;20548;-65
2024/02/02 10:25:47;;;;;;;12.40;4.70;;;7.00;1.00;;;;;;4977593;28;20498;-63
2024/02/02 10:28:29;;;;;;;14.50;5.23;;;7.30;1.00;;;;;;4977609;28;20856;-65
2024/02/02 10:31:09;;;;;;;10.60;5.33;;;7.40;1.00;;;;;;4978071;28;20473;-66
2024/02/02 10:33:57;;;;;;;13.83;5.37;;;7.20;1.00;;;;;;4977997;28;20740;-65
2024/02/02 10:36:37;;;;;;;13.00;5.33;;;7.20;1.00;;;;;;4978714;28;20462;-64
2024/02/02 10:39:17;;;;;;;12.80;5.50;;;7.20;1.00;;;;;;4978416;28;20457;-65
2024/02/02 10:42:02;;;;;;;12.30;4.87;;;7.40;1.00;;;;;;4977667;28;20462;-67
2024/02/02 10:44:44;;;;;;;13.80;4.90;;;7.40;1.00;;;;;;4978485;28;20488;-65
2024/02/02 10:47:30;;;;;;;13.47;5.90;;;7.40;1.00;;;;;;4978234;28;20502;-66
2024/02/02 10:50:08;;;;;;;20.63;5.70;;;7.60;1.00;;;;;;4978932;28;20470;-62
2024/02/02 10:52:47;;;;;;;16.43;5.33;;;7.70;1.00;;;;;;4978890;28;20883;-66
2024/02/02 10:55:27;;;;;;;10.50;4.70;;;7.90;1.00;;;;;;4977456;28;20505;-63
2024/02/02 10:58:03;;;;;;;17.43;6.07;;;8.00;1.00;;;;;;4977275;28;20799;-65
2024/02/02 11:00:39;;;;;;;14.80;6.07;;;8.40;1.00;;;;;;4977304;28;20461;-64
2024/02/02 11:03:28;;;;;;;10.00;4.80;;;8.80;99.90;;;;;;4978104;28;20465;-63
2024/02/02 11:06:06;;;;;;;12.70;4.87;;;8.60;99.90;;;;;;4976480;28;20551;-64
2024/02/02 11:08:39;;;;;;;10.00;4.80;;;8.70;99.90;;;;;;4927112;28;1462088;-64
2024/02/02 11:11:09;;;;;;;11.20;5.37;;;8.80;99.90;;;;;;4978249;28;20556;-66
2024/02/02 11:13:45;;;;;;;14.00;5.33;;;8.80;99.90;;;;;;4977715;28;20458;-71
2024/02/02 11:16:27;;;;;;;16.63;6.40;;;8.80;99.90;;;;;;4978050;28;20487;-64
2024/02/02 11:19:10;;;;;;;12.77;5.47;;;8.70;99.90;;;;;;4978185;28;20553;-65
2024/02/02 11:21:52;;;;;;;12.87;6.30;;;9.00;99.90;;;;;;4979268;28;20486;-65
2024/02/02 11:24:27;;;;;;;12.00;5.20;;;9.10;99.90;;;;;;4978584;28;20462;-65
2024/02/02 11:27:04;;;;;;;13.83;6.03;;;9.00;99.90;;;;;;4978854;28;20587;-65
2024/02/02 11:29:44;;;;;;;10.70;5.20;;;9.00;99.90;;;;;;4978759;28;20440;-64
2024/02/02 11:32:27;;;;;;;14.17;5.87;;;9.20;99.90;;;;;;4978008;28;20473;-64
2024/02/02 11:35:06;;;;;;;12.30;5.47;;;9.50;99.90;;;;;;4979108;28;20472;-68
2024/02/02 11:37:45;;;;;;;13.03;5.73;;;9.50;99.90;;;;;;4979164;28;20472;-64
2024/02/02 11:40:16;;;;;;;11.10;5.47;;;9.00;1.00;;;;;;4979878;28;20472;-65
2024/02/02 11:42:44;;;;;;;13.27;6.97;;;8.90;1.00;;;;;;4977909;28;20654;-64
2024/02/02 11:45:18;;;;;;;15.00;5.60;;;9.00;1.00;;;;;;4977689;28;20465;-66
2024/02/02 11:47:54;;;;;;;12.67;4.80;;;9.20;1.00;;;;;;4978392;28;20497;-68
2024/02/02 11:50:26;;;;;;;11.33;5.97;;;9.30;1.00;;;;;;4978984;28;20461;-65
2024/02/02 11:53:01;;;;;;;18.90;6.57;;;9.20;1.00;;;;;;4980375;28;20466;-66
2024/02/02 11:55:34;;;;;;;16.70;5.90;;;9.30;15.70;;;;;;4978182;28;20866;-68
2024/02/02 11:58:06;;;;;;;15.20;6.37;;;9.40;90.30;;;;;;4979638;28;20458;-66
2024/02/02 12:00:48;;;;;;;14.23;6.10;;;9.30;74.20;;;;;;4978692;28;20878;-64
2024/02/02 12:03:30;;;;;;;14.27;7.43;;;9.40;99.90;;;;;;4976970;28;20512;-65
2024/02/02 12:06:10;;;;;;;16.17;6.60;;;9.40;91.50;;;;;;4976463;28;20473;-64
2024/02/02 12:08:50;;;;;;;12.63;5.93;;;9.40;99.90;;;;;;4972590;28;20575;-64
2024/02/02 12:11:21;;;;;;;15.13;5.53;;;9.40;99.90;;;;;;4975699;28;20500;-72
2024/02/02 12:13:51;;;;;;;11.10;5.23;;;9.30;83.10;;;;;;4976269;28;20537;-65
2024/02/02 12:16:19;;;;;;;14.37;5.63;;;9.20;99.90;;;;;;4977115;28;20458;-65
2024/02/02 12:18:46;;;;;;;18.30;5.80;;;8.90;99.90;;;;;;4977523;28;20568;-66
2024/02/02 12:21:17;;;;;;;13.97;5.90;;;8.90;99.90;;;;;;4977726;28;20909;-69
2024/02/02 12:23:47;;;;;;;14.13;5.63;;;8.80;99.90;;;;;;4973154;28;20480;-65
2024/02/02 12:26:15;;;;;;;15.03;6.30;;;8.90;99.90;;;;;;4978052;28;20927;-66
2024/02/02 12:28:43;;;;;;;15.53;5.70;;;9.20;99.90;;;;;;4978006;28;20565;-70
2024/02/02 12:31:10;;;;;;;10.87;5.70;;;9.00;18.00;;;;;;4976531;28;20519;-65
2024/02/02 12:33:38;;;;;;;17.80;5.80;;;9.00;99.90;;;;;;4976924;28;20844;-64
2024/02/02 12:36:06;;;;;;;12.73;5.43;;;9.10;35.80;;;;;;4979801;28;20462;-64
2024/02/02 12:38:35;;;;;;;11.00;5.20;;;9.30;99.90;;;;;;4978888;28;20818;-64
2024/02/02 12:41:03;;;;;;;16.73;5.33;;;9.40;99.90;;;;;;4977777;28;20735;-64
2024/02/02 12:43:31;;;;;;;17.13;6.43;;;9.90;99.90;;;;;;4977447;28;20545;-65
2024/02/02 12:45:59;;;;;;;13.93;5.90;;;10.20;99.90;;;;;;4976789;28;20466;-65
2024/02/02 12:48:26;;;;;;;14.10;4.87;;;10.50;99.90;;;;;;4978593;28;20515;-66
2024/02/02 12:50:55;;;;;;;12.63;5.37;;;10.10;99.90;;;;;;4978319;28;20466;-64
2024/02/02 12:53:23;;;;;;;13.20;5.93;;;10.10;99.90;;;;;;4978273;28;20486;-64
2024/02/02 12:55:53;;;;;;;10.13;5.17;;;9.90;99.90;;;;;;4975823;28;20461;-63
2024/02/02 12:58:21;;;;;;;11.80;5.50;;;9.90;99.90;;;;;;4975256;28;20465;-65
2024/02/02 13:00:49;;;;;;;14.37;6.10;;;10.10;99.90;;;;;;4974882;28;20770;-64
2024/02/02 13:03:17;;;;;;;13.50;6.23;;;10.20;99.90;;;;;;4975595;28;20466;-68
2024/02/02 13:05:45;;;;;;;12.50;6.00;;;10.10;99.90;;;;;;4975866;28;20480;-64
2024/02/02 13:08:16;;;;;;;15.27;7.00;;;9.90;99.90;;;;;;4977321;28;20571;-69
2024/02/02 13:10:47;;;;;;;13.67;6.03;;;10.00;99.90;;;;;;4977463;28;20466;-65